CheckWX is a tool to help pilots better visualize weather data.  It is not intended as a substitute for an official pre-flight weather briefing.

20:42:28 UTC

KOPN METAR
Thomaston-Upson County Airport
Thomaston, Georgia, USA
Current

27 mins ago

KOPN 182015Z AUTO 01005KT 10SM CLR 18/M08 A3019 RMK AO2
Observed
Feb-18 @ 20:15 UTC
Wind
  • 010° at 5 KTS
Visibility
10 SM
Flight Rules
VFR
Cloud Levels
  • Clear skies
Temperature
18°C / 64°F
Dewpoint
-8°C / 18°F
Humidity
16%
Altimeter
30.19" Hg
Pressure
1022.32 hPa
Previous

47 mins ago

KOPN 181955Z AUTO 35010G17KT 10SM CLR 18/M09 A3020 RMK AO2
Observed
Feb-18 @ 19:55 UTC
Wind
  • 350° at 10 KTS
  • Gusting to 17 KTS
Visibility
10 SM
Flight Rules
VFR
Cloud Levels
  • Clear skies
Temperature
18°C / 64°F
Dewpoint
-9°C / 16°F
Humidity
15%
Altimeter
30.2" Hg
Pressure
1022.72 hPa
Previous

1 hour ago

KOPN 181935Z AUTO 36008KT 320V030 10SM CLR 18/M08 A3019 RMK AO2
Observed
Feb-18 @ 19:35 UTC
Wind
  • 360° at 8 KTS
Visibility
10 SM
Flight Rules
VFR
Cloud Levels
  • Clear skies
Temperature
18°C / 64°F
Dewpoint
-8°C / 18°F
Humidity
16%
Altimeter
30.19" Hg
Pressure
1022.32 hPa